createdAt,value
2019-01-05T00:04:43.157Z,63.70
2019-01-05T00:10:05.584Z,63.80
2019-01-05T00:15:32.911Z,63.70
2019-01-05T00:20:51.654Z,64.20
2019-01-05T00:26:14.527Z,63.80
2019-01-05T00:31:50.814Z,63.80
2019-01-05T00:37:24.203Z,63.80
2019-01-05T00:42:54.525Z,63.80
2019-01-05T00:48:32.261Z,63.80
2019-01-05T00:54:00.728Z,63.80
2019-01-05T00:59:23.805Z,64.30
2019-01-05T01:04:53.226Z,64.00
2019-01-05T01:10:16.117Z,64.00
2019-01-05T01:15:44.666Z,64.10
2019-01-05T01:21:12.021Z,64.20
2019-01-05T01:26:45.247Z,64.40
2019-01-05T01:32:09.067Z,64.40
2019-01-05T01:37:45.486Z,64.40
2019-01-05T01:43:08.195Z,64.50
2019-01-05T01:48:32.949Z,64.70
2019-01-05T01:54:01.592Z,64.70
2019-01-05T01:59:47.066Z,64.70
2019-01-05T02:05:11.005Z,64.60
2019-01-05T02:10:45.468Z,64.70
2019-01-05T02:16:10.197Z,64.80
2019-01-05T02:22:18.664Z,64.80
2019-01-05T02:28:49.990Z,64.80
2019-01-05T02:34:53.922Z,64.70
2019-01-05T02:40:47.926Z,64.70
2019-01-05T02:46:48.118Z,64.70
2019-01-05T02:52:38.150Z,64.70
2019-01-05T02:58:26.058Z,64.90
2019-01-05T03:04:24.469Z,65.10
2019-01-05T03:10:47.400Z,65.20
2019-01-05T03:16:36.056Z,65.20
2019-01-05T03:22:49.127Z,65.40
2019-01-05T03:28:43.585Z,65.40
2019-01-05T03:34:42.302Z,65.40
2019-01-05T03:41:05.657Z,65.30
2019-01-05T03:47:16.792Z,65.30
2019-01-05T03:53:04.118Z,65.40
2019-01-05T03:59:03.048Z,65.40
2019-01-05T04:05:06.941Z,65.40
2019-01-05T04:11:25.661Z,65.60
2019-01-05T04:17:50.599Z,65.60
2019-01-05T04:23:59.442Z,65.70
2019-01-05T04:30:15.081Z,65.70
2019-01-05T04:36:11.225Z,65.70
2019-01-05T04:41:55.997Z,65.60
2019-01-05T04:48:08.666Z,65.60
2019-01-05T04:54:01.541Z,65.80
2019-01-05T05:00:30.397Z,65.80
2019-01-05T05:06:48.538Z,65.80
2019-01-05T05:12:38.239Z,65.70
2019-01-05T05:18:44.127Z,65.80
2019-01-05T05:24:55.177Z,65.90
2019-01-05T05:31:09.810Z,66.00
2019-01-05T05:37:06.202Z,66.00
2019-01-05T05:42:49.630Z,66.00
2019-01-05T05:49:04.587Z,66.00
2019-01-05T05:55:10.113Z,66.10
2019-01-05T06:01:18.765Z,66.30
2019-01-05T06:07:28.379Z,67.00
2019-01-05T06:13:51.926Z,66.30
2019-01-05T06:19:58.197Z,66.20
2019-01-05T06:26:02.330Z,66.30
2019-01-05T06:32:26.137Z,66.40
2019-01-05T06:38:44.806Z,66.50
2019-01-05T06:45:19.258Z,66.50
2019-01-05T06:51:34.748Z,66.70
2019-01-05T06:57:46.601Z,66.60
2019-01-05T07:03:50.240Z,66.70
2019-01-05T07:09:47.241Z,66.60
2019-01-05T07:15:40.030Z,66.60
2019-01-05T07:21:54.544Z,66.70
2019-01-05T07:28:10.070Z,66.60
2019-01-05T07:34:06.300Z,67.40
2019-01-05T07:40:06.862Z,66.70
2019-01-05T07:46:14.957Z,66.60
2019-01-05T07:52:27.625Z,66.60
2019-01-05T07:58:43.846Z,66.50
2019-01-05T08:04:40.690Z,66.60
2019-01-05T08:10:47.698Z,66.60
2019-01-05T08:16:54.501Z,66.60
2019-01-05T08:23:04.037Z,66.50
2019-01-05T08:29:18.961Z,66.40
2019-01-05T08:35:13.066Z,66.40
2019-01-05T08:41:22.526Z,67.10
2019-01-05T08:47:45.088Z,66.30
2019-01-05T08:53:57.036Z,66.30
2019-01-05T09:00:13.557Z,66.40
2019-01-05T09:06:06.334Z,66.40
2019-01-05T09:12:01.424Z,66.30
2019-01-05T09:18:15.151Z,66.30
2019-01-05T09:24:14.904Z,66.30
2019-01-05T09:30:30.254Z,66.30
2019-01-05T09:36:17.797Z,66.20
2019-01-05T09:42:14.597Z,66.30
2019-01-05T09:48:33.072Z,66.30
2019-01-05T09:54:17.341Z,66.20
2019-01-05T10:00:15.195Z,66.10
2019-01-05T10:06:09.536Z,66.10
2019-01-05T10:12:36.816Z,66.10
2019-01-05T10:18:57.929Z,66.10
2019-01-05T10:25:25.329Z,66.00
2019-01-05T10:31:44.538Z,66.10
2019-01-05T10:37:44.166Z,66.00
2019-01-05T10:43:42.471Z,65.90
2019-01-05T10:49:48.945Z,66.00
2019-01-05T10:55:49.818Z,66.00
2019-01-05T11:01:49.832Z,65.90
2019-01-05T11:07:46.033Z,65.90
2019-01-05T11:13:45.764Z,65.80
2019-01-05T11:19:57.322Z,65.80
2019-01-05T11:26:10.424Z,65.70
2019-01-05T11:32:54.426Z,65.80
2019-01-05T11:39:21.452Z,66.40
2019-01-05T11:45:23.547Z,65.60
2019-01-05T11:51:28.606Z,65.60
2019-01-05T11:57:13.769Z,65.50
2019-01-05T12:03:29.902Z,65.40
2019-01-05T12:09:41.532Z,65.20
2019-01-05T12:15:41.206Z,65.20
2019-01-05T12:21:54.436Z,65.10
2019-01-05T12:28:01.316Z,65.00
2019-01-05T12:34:24.319Z,65.00
2019-01-05T12:40:30.384Z,64.90
2019-01-05T12:47:14.986Z,64.90
2019-01-05T12:54:06.294Z,64.90
2019-01-05T13:00:26.637Z,64.90
2019-01-05T13:06:44.126Z,64.80
2019-01-05T13:13:04.716Z,64.60
2019-01-05T13:19:04.818Z,64.40
2019-01-05T13:25:09.589Z,64.50
2019-01-05T13:31:36.758Z,64.50
2019-01-05T13:37:29.269Z,64.60
2019-01-05T13:43:20.251Z,64.50
2019-01-05T13:49:09.877Z,65.30
2019-01-05T13:54:32.525Z,64.50
2019-01-05T13:59:47.577Z,64.50
2019-01-05T14:05:08.285Z,64.60
2019-01-05T14:10:35.089Z,64.60
2019-01-05T14:15:55.564Z,64.70
2019-01-05T14:21:29.377Z,64.70
2019-01-05T14:26:59.666Z,64.70
2019-01-05T14:32:32.683Z,64.80
2019-01-05T14:38:00.435Z,64.90
2019-01-05T14:43:30.628Z,65.00
2019-01-05T14:48:52.999Z,65.00
2019-01-05T14:54:35.177Z,65.10
2019-01-05T15:00:05.446Z,65.00
2019-01-05T15:05:17.055Z,65.10
2019-01-05T15:10:50.251Z,65.00
2019-01-05T15:16:17.294Z,65.10
2019-01-05T15:21:44.698Z,65.00
2019-01-05T15:27:08.367Z,64.90
2019-01-05T15:32:26.221Z,65.20
2019-01-05T15:38:03.170Z,65.10
2019-01-05T15:43:29.689Z,65.10
2019-01-05T15:48:52.676Z,65.10
2019-01-05T15:54:27.495Z,65.10
2019-01-05T16:00:02.956Z,65.10
2019-01-05T16:05:45.543Z,65.20
2019-01-05T16:11:09.858Z,65.10
2019-01-05T16:16:32.760Z,65.20
2019-01-05T16:21:55.689Z,65.20
2019-01-05T16:27:28.506Z,65.20
2019-01-05T16:33:12.321Z,65.20
2019-01-05T16:38:35.523Z,65.20
2019-01-05T16:43:51.098Z,65.20
2019-01-05T16:49:28.978Z,65.30
2019-01-05T16:55:22.981Z,65.10
2019-01-05T17:00:45.790Z,65.20
2019-01-05T17:06:08.773Z,65.20
2019-01-05T17:11:47.957Z,65.20
2019-01-05T17:17:08.503Z,65.20
2019-01-05T17:22:38.929Z,65.20
2019-01-05T17:28:02.684Z,65.20
2019-01-05T17:33:24.023Z,65.20
2019-01-05T17:38:46.782Z,65.20
2019-01-05T17:44:10.346Z,65.20
2019-01-05T17:49:37.518Z,65.10
2019-01-05T17:55:00.926Z,65.20
2019-01-05T18:00:33.317Z,65.20
2019-01-05T18:06:03.690Z,65.20
2019-01-05T18:11:35.262Z,65.20
2019-01-05T18:17:04.003Z,65.20
2019-01-05T18:22:24.744Z,65.10
2019-01-05T18:27:54.699Z,65.10
2019-01-05T18:33:37.703Z,64.90
2019-01-05T18:39:12.965Z,65.00
2019-01-05T18:44:31.046Z,64.80
2019-01-05T18:49:57.353Z,64.80
2019-01-05T18:55:24.595Z,64.80
2019-01-05T19:00:44.303Z,64.80
2019-01-05T19:06:14.572Z,64.80
2019-01-05T19:11:31.535Z,64.90
2019-01-05T19:16:55.939Z,64.80
2019-01-05T19:22:32.583Z,64.80
2019-01-05T19:27:55.646Z,64.80
2019-01-05T19:33:14.375Z,64.80
2019-01-05T19:38:48.201Z,64.90
2019-01-05T19:44:21.019Z,64.80
2019-01-05T19:49:45.867Z,64.80
2019-01-05T19:55:08.779Z,64.70
2019-01-05T20:00:31.804Z,64.80
2019-01-05T20:06:05.489Z,64.80
2019-01-05T20:11:28.197Z,64.80
2019-01-05T20:16:52.840Z,64.70
2019-01-05T20:22:10.508Z,64.70
2019-01-05T20:27:33.323Z,64.60
2019-01-05T20:32:56.131Z,64.60
2019-01-05T20:38:23.843Z,64.60
2019-01-05T20:43:46.976Z,64.50
2019-01-05T20:49:12.634Z,64.60
2019-01-05T20:54:47.534Z,64.60
2019-01-05T21:00:16.499Z,64.50
2019-01-05T21:05:47.427Z,64.50
2019-01-05T21:11:14.202Z,64.60
2019-01-05T21:16:58.281Z,64.60
2019-01-05T21:22:18.454Z,64.60
2019-01-05T21:27:46.925Z,64.60
2019-01-05T21:33:25.768Z,64.60
2019-01-05T21:38:54.975Z,64.60
2019-01-05T21:44:23.772Z,64.60
2019-01-05T21:49:48.209Z,64.60
2019-01-05T21:55:26.918Z,64.50
2019-01-05T22:00:52.483Z,64.60
2019-01-05T22:06:30.013Z,64.50
2019-01-05T22:11:54.917Z,64.50
2019-01-05T22:17:39.229Z,64.40
2019-01-05T22:23:06.408Z,64.40
2019-01-05T22:28:29.299Z,64.40
2019-01-05T22:33:57.725Z,64.40
2019-01-05T22:39:34.783Z,64.40
2019-01-05T22:44:59.285Z,64.50
2019-01-05T22:50:06.936Z,64.40
2019-01-05T22:55:50.532Z,64.40
2019-01-05T23:01:31.609Z,64.40
2019-01-05T23:06:56.184Z,64.50
2019-01-05T23:12:28.283Z,64.50
2019-01-05T23:18:05.069Z,64.50
2019-01-05T23:23:32.327Z,64.40
2019-01-05T23:28:56.137Z,64.60
2019-01-05T23:34:19.146Z,64.60
2019-01-05T23:39:57.897Z,64.50
2019-01-05T23:45:26.987Z,64.50
2019-01-05T23:50:44.043Z,64.40
2019-01-05T23:56:11.201Z,64.50
